createdAt,value
2023-03-22T00:01:14.115Z,8.10
2023-03-22T00:03:16.477Z,13.03
2023-03-22T00:05:18.141Z,7.50
2023-03-22T00:07:19.889Z,7.60
2023-03-22T00:09:21.598Z,7.40
2023-03-22T00:11:24.930Z,8.30
2023-03-22T00:13:26.679Z,7.45
2023-03-22T00:15:28.351Z,7.32
2023-03-22T00:17:29.969Z,8.55
2023-03-22T00:19:31.761Z,7.77
2023-03-22T00:21:33.439Z,8.07
2023-03-22T00:23:35.043Z,10.30
2023-03-22T00:25:36.824Z,8.40
2023-03-22T00:27:39.942Z,8.85
2023-03-22T00:29:41.804Z,8.20
2023-03-22T00:31:43.594Z,10.07
2023-03-22T00:33:45.179Z,8.17
2023-03-22T00:35:51.679Z,7.73
2023-03-22T00:37:53.357Z,8.73
2023-03-22T00:39:54.901Z,7.20
2023-03-22T00:41:56.504Z,7.90
2023-03-22T00:43:59.528Z,8.43
2023-03-22T00:46:01.209Z,9.23
2023-03-22T00:48:02.859Z,8.48
2023-03-22T00:50:06.440Z,8.17
2023-03-22T00:52:08.050Z,8.90
2023-03-22T00:54:09.628Z,7.93
2023-03-22T00:56:12.201Z,9.30
2023-03-22T00:58:13.757Z,8.00
2023-03-22T01:00:17.840Z,7.30
2023-03-22T01:02:19.910Z,8.37
2023-03-22T01:04:21.592Z,8.73
2023-03-22T01:06:23.193Z,7.80
2023-03-22T01:08:24.809Z,9.00
2023-03-22T01:10:26.624Z,7.70
2023-03-22T01:12:28.242Z,8.05
2023-03-22T01:14:30.060Z,8.43
2023-03-22T01:16:33.144Z,8.48
2023-03-22T01:18:35.807Z,7.43
2023-03-22T01:20:37.609Z,7.15
2023-03-22T01:22:39.484Z,7.27
2023-03-22T01:24:41.060Z,7.75
2023-03-22T01:26:42.806Z,7.30
2023-03-22T01:28:44.604Z,7.67
2023-03-22T01:30:46.301Z,8.18
2023-03-22T01:32:49.426Z,7.83
2023-03-22T01:34:51.248Z,8.10
2023-03-22T01:36:53.824Z,6.70
2023-03-22T01:38:55.498Z,7.80
2023-03-22T01:40:59.953Z,7.73
2023-03-22T01:43:01.667Z,10.48
2023-03-22T01:45:40.896Z,7.43
2023-03-22T01:47:46.022Z,7.97
2023-03-22T01:49:49.451Z,8.03
2023-03-22T01:51:54.853Z,8.53
2023-03-22T01:54:00.210Z,8.13
2023-03-22T01:56:03.122Z,8.70
2023-03-22T01:58:11.234Z,12.00
2023-03-22T02:00:14.072Z,8.53
2023-03-22T02:02:16.996Z,9.37
2023-03-22T02:04:21.630Z,8.35
2023-03-22T02:06:26.744Z,8.10
2023-03-22T02:08:29.112Z,9.47
2023-03-22T02:10:31.101Z,8.98
2023-03-22T02:12:43.413Z,11.40
2023-03-22T02:15:02.910Z,8.75
2023-03-22T02:17:17.236Z,9.87
2023-03-22T02:19:59.109Z,9.00
2023-03-22T02:22:33.011Z,7.73
2023-03-22T02:24:54.833Z,8.47
2023-03-22T02:27:17.829Z,11.47
2023-03-22T02:29:27.482Z,9.80
2023-03-22T02:31:58.490Z,8.27
2023-03-22T02:34:17.173Z,8.57
2023-03-22T02:36:37.726Z,10.00
2023-03-22T02:39:12.530Z,9.25
2023-03-22T02:41:23.998Z,10.57
2023-03-22T02:43:34.551Z,10.57
2023-03-22T02:45:45.814Z,9.13
2023-03-22T02:47:56.064Z,8.83
2023-03-22T02:50:03.392Z,13.10
2023-03-22T02:52:12.664Z,9.55
2023-03-22T02:54:21.426Z,8.73
2023-03-22T02:56:27.279Z,7.82
2023-03-22T02:58:32.832Z,9.50
2023-03-22T03:00:36.954Z,10.55
2023-03-22T03:02:43.678Z,9.75
2023-03-22T03:04:54.027Z,7.93
2023-03-22T03:07:00.105Z,9.75
2023-03-22T03:09:02.979Z,9.95
2023-03-22T03:11:06.729Z,10.93
2023-03-22T03:13:12.592Z,9.15
2023-03-22T03:15:17.072Z,9.80
2023-03-22T03:17:30.539Z,9.43
2023-03-22T03:19:37.431Z,10.53
2023-03-22T03:21:49.574Z,9.90
2023-03-22T03:24:00.741Z,9.93
2023-03-22T03:26:09.450Z,10.82
2023-03-22T03:28:17.940Z,9.90
2023-03-22T03:30:24.397Z,11.57
2023-03-22T03:32:29.505Z,12.05
2023-03-22T03:34:39.560Z,11.95
2023-03-22T03:36:46.061Z,11.70
2023-03-22T03:38:51.686Z,11.43
2023-03-22T03:40:57.578Z,9.90
2023-03-22T03:43:03.332Z,10.00
2023-03-22T03:45:07.190Z,11.07
2023-03-22T03:47:10.797Z,10.50
2023-03-22T03:49:14.282Z,10.60
2023-03-22T03:51:16.065Z,10.90
2023-03-22T03:53:17.749Z,10.27
2023-03-22T03:55:20.248Z,10.43
2023-03-22T03:57:21.810Z,8.77
2023-03-22T03:59:24.912Z,10.60
2023-03-22T04:01:26.489Z,10.00
2023-03-22T04:03:28.184Z,10.30
2023-03-22T04:05:29.835Z,11.32
2023-03-22T04:07:34.477Z,9.13
2023-03-22T04:09:38.297Z,9.30
2023-03-22T04:11:39.927Z,8.67
2023-03-22T04:13:41.549Z,10.00
2023-03-22T04:15:44.550Z,10.02
2023-03-22T04:17:46.179Z,8.23
2023-03-22T04:19:47.836Z,9.30
2023-03-22T04:21:49.478Z,9.02
2023-03-22T04:23:51.082Z,9.38
2023-03-22T04:25:52.719Z,8.75
2023-03-22T04:27:54.286Z,9.43
2023-03-22T04:29:55.991Z,9.13
2023-03-22T04:31:58.968Z,10.90
2023-03-22T04:34:00.567Z,9.07
2023-03-22T04:36:04.478Z,9.17
2023-03-22T04:38:06.177Z,8.30
2023-03-22T04:40:09.218Z,9.90
2023-03-22T04:42:11.344Z,9.15
2023-03-22T04:44:12.958Z,10.25
2023-03-22T04:46:14.596Z,7.67
2023-03-22T04:48:17.650Z,8.52
2023-03-22T04:50:19.380Z,8.48
2023-03-22T04:52:21.035Z,8.55
2023-03-22T04:54:23.349Z,10.23
2023-03-22T04:56:25.250Z,8.73
2023-03-22T04:58:27.234Z,8.13
2023-03-22T05:00:28.884Z,7.55
2023-03-22T05:02:30.456Z,7.40
2023-03-22T05:04:33.452Z,7.97
2023-03-22T05:06:35.031Z,7.57
2023-03-22T05:08:36.542Z,7.70
2023-03-22T05:10:39.956Z,8.50
2023-03-22T05:12:41.782Z,7.90
2023-03-22T05:14:43.554Z,8.20
2023-03-22T05:16:45.117Z,7.97
2023-03-22T05:18:46.742Z,7.70
2023-03-22T05:20:49.674Z,7.53
2023-03-22T05:22:51.264Z,8.20
2023-03-22T05:24:52.850Z,7.40
2023-03-22T05:26:54.451Z,8.20
2023-03-22T05:28:56.668Z,10.45
2023-03-22T05:30:58.765Z,8.25
2023-03-22T05:33:01.333Z,10.70
2023-03-22T05:35:03.084Z,7.67
2023-03-22T05:37:06.095Z,9.13
2023-03-22T05:39:07.709Z,8.63
2023-03-22T05:41:09.657Z,8.80
2023-03-22T05:43:11.866Z,8.53
2023-03-22T05:45:13.867Z,7.50
2023-03-22T05:47:15.491Z,7.05
2023-03-22T05:49:17.086Z,7.40
2023-03-22T05:51:18.627Z,8.20
2023-03-22T05:53:21.532Z,9.80
2023-03-22T05:55:23.370Z,7.18
2023-03-22T05:57:25.020Z,10.57
2023-03-22T05:59:26.746Z,9.30
2023-03-22T06:01:28.498Z,8.05
2023-03-22T06:03:30.226Z,7.67
2023-03-22T06:05:32.834Z,9.50
2023-03-22T06:07:34.421Z,8.47
2023-03-22T06:09:37.368Z,7.72
2023-03-22T06:11:38.908Z,7.50
2023-03-22T06:13:40.703Z,6.97
2023-03-22T06:15:42.224Z,9.43
2023-03-22T06:17:43.788Z,7.63
2023-03-22T06:19:45.588Z,6.40
2023-03-22T06:21:47.458Z,6.82
2023-03-22T06:23:49.104Z,8.43
2023-03-22T06:25:52.304Z,7.97
2023-03-22T06:27:53.847Z,7.00
2023-03-22T06:29:55.566Z,6.95
2023-03-22T06:31:57.250Z,8.10
2023-03-22T06:33:59.044Z,8.45
2023-03-22T06:36:00.627Z,8.73
2023-03-22T06:38:02.261Z,7.45
2023-03-22T06:40:04.452Z,9.02
2023-03-22T06:42:07.413Z,7.75
2023-03-22T06:44:09.031Z,7.20
2023-03-22T06:46:10.734Z,8.30
2023-03-22T06:48:12.766Z,7.85
2023-03-22T06:50:14.493Z,6.77
2023-03-22T06:52:20.931Z,8.85
2023-03-22T06:54:22.518Z,7.75
2023-03-22T06:56:24.427Z,8.17
2023-03-22T06:58:27.807Z,9.07
2023-03-22T07:00:30.029Z,6.87
2023-03-22T07:02:31.691Z,7.80
2023-03-22T07:04:33.835Z,8.80
2023-03-22T07:06:35.531Z,8.83
2023-03-22T07:08:37.305Z,9.27
2023-03-22T07:10:39.235Z,6.67
2023-03-22T07:12:41.499Z,7.27
2023-03-22T07:14:44.790Z,6.87
2023-03-22T07:16:46.877Z,11.00
2023-03-22T07:18:48.701Z,7.40
2023-03-22T07:20:50.414Z,8.60
2023-03-22T07:22:52.030Z,6.70
2023-03-22T07:24:57.840Z,7.97
2023-03-22T07:27:00.735Z,9.05
2023-03-22T07:29:04.892Z,8.50
2023-03-22T07:31:09.886Z,9.38
2023-03-22T07:33:13.724Z,9.57
2023-03-22T07:35:15.810Z,6.93
2023-03-22T07:37:17.778Z,8.80
2023-03-22T07:39:19.615Z,6.95
2023-03-22T07:41:26.267Z,13.27
2023-03-22T07:43:28.336Z,10.48
2023-03-22T07:45:32.145Z,7.03
2023-03-22T07:47:41.153Z,8.10
2023-03-22T07:49:43.233Z,8.10
2023-03-22T07:51:45.352Z,7.67
2023-03-22T07:53:46.956Z,6.47
2023-03-22T07:55:49.799Z,7.33
2023-03-22T07:57:51.510Z,8.17
2023-03-22T07:59:53.251Z,8.47
2023-03-22T08:01:55.034Z,7.80
2023-03-22T08:03:58.430Z,7.33
2023-03-22T08:06:01.745Z,7.70
2023-03-22T08:08:03.428Z,8.07
2023-03-22T08:10:05.998Z,7.63
2023-03-22T08:12:07.764Z,9.98
2023-03-22T08:14:09.889Z,5.93
2023-03-22T08:16:11.816Z,8.90
2023-03-22T08:18:15.660Z,7.97
2023-03-22T08:20:19.098Z,8.77
2023-03-22T08:22:20.989Z,6.40
2023-03-22T08:24:22.780Z,9.40
2023-03-22T08:26:24.482Z,7.20
2023-03-22T08:28:26.404Z,10.10
2023-03-22T08:30:29.652Z,7.50
2023-03-22T08:32:32.696Z,6.10
2023-03-22T08:34:37.063Z,10.23
2023-03-22T08:36:40.095Z,9.10
2023-03-22T08:38:41.730Z,8.13
2023-03-22T08:40:46.582Z,6.67
2023-03-22T08:42:48.437Z,5.27
2023-03-22T08:44:50.004Z,5.20
2023-03-22T08:46:51.715Z,5.77
2023-03-22T08:48:53.460Z,6.73
2023-03-22T08:50:55.135Z,5.03
2023-03-22T08:52:58.160Z,6.50
2023-03-22T08:54:59.879Z,6.30
2023-03-22T08:57:01.525Z,6.50
2023-03-22T08:59:03.305Z,4.60
2023-03-22T09:01:05.435Z,3.90
2023-03-22T09:03:07.294Z,6.90
2023-03-22T09:05:09.821Z,4.07
2023-03-22T09:07:11.537Z,3.73
2023-03-22T09:09:15.185Z,4.20
2023-03-22T09:11:18.066Z,4.83
2023-03-22T09:13:27.987Z,5.00
2023-03-22T09:15:29.722Z,5.23
2023-03-22T09:17:31.687Z,3.70
2023-03-22T09:19:34.809Z,4.70
2023-03-22T09:21:37.606Z,4.00
2023-03-22T09:23:39.807Z,7.13
2023-03-22T09:25:45.151Z,5.90
2023-03-22T09:27:46.797Z,4.67
2023-03-22T09:29:48.475Z,3.53
2023-03-22T09:31:50.194Z,4.93
2023-03-22T09:33:51.847Z,4.03
2023-03-22T09:35:54.209Z,6.03
2023-03-22T09:37:57.502Z,3.97
2023-03-22T09:39:59.124Z,3.90
2023-03-22T09:42:07.087Z,3.60
2023-03-22T09:44:15.650Z,3.00
2023-03-22T09:46:22.758Z,3.30
2023-03-22T09:48:31.250Z,3.80
2023-03-22T09:50:34.759Z,2.60
2023-03-22T09:52:36.681Z,2.33
2023-03-22T09:54:42.145Z,2.33
2023-03-22T09:56:47.222Z,2.80
2023-03-22T09:58:56.127Z,4.77
2023-03-22T10:01:00.706Z,4.17
2023-03-22T10:03:16.753Z,4.00
2023-03-22T10:05:26.986Z,4.30
2023-03-22T10:07:35.003Z,3.67
2023-03-22T10:09:49.188Z,2.50
2023-03-22T10:11:57.821Z,2.30
2023-03-22T10:14:08.884Z,4.97
2023-03-22T10:16:13.239Z,5.03
2023-03-22T10:18:19.996Z,4.33
2023-03-22T10:20:32.002Z,3.70
2023-03-22T10:22:37.368Z,3.43
2023-03-22T10:24:41.187Z,3.33
2023-03-22T10:26:46.448Z,3.77
2023-03-22T10:28:55.142Z,6.77
2023-03-22T10:30:58.856Z,4.93
2023-03-22T10:33:02.589Z,8.40
2023-03-22T10:35:04.823Z,4.70
2023-03-22T10:37:10.044Z,5.23
2023-03-22T10:39:19.319Z,4.03
2023-03-22T10:41:24.557Z,5.73
2023-03-22T10:43:32.401Z,2.40
2023-03-22T10:45:35.835Z,3.20
2023-03-22T10:47:43.653Z,4.43
2023-03-22T10:49:49.445Z,3.13
2023-03-22T10:51:56.159Z,2.77
2023-03-22T10:53:58.946Z,4.37
2023-03-22T10:56:00.644Z,4.03
2023-03-22T10:58:12.608Z,3.87
2023-03-22T11:00:16.339Z,2.93
2023-03-22T11:02:22.985Z,6.13
2023-03-22T11:04:26.404Z,5.90
2023-03-22T11:06:29.993Z,4.37
2023-03-22T11:08:39.268Z,3.97
2023-03-22T11:10:41.011Z,4.77
2023-03-22T11:12:48.144Z,3.83
2023-03-22T11:14:51.934Z,3.93
2023-03-22T11:16:56.565Z,3.20
2023-03-22T11:19:01.645Z,2.43
2023-03-22T11:21:09.868Z,4.13
2023-03-22T11:23:13.162Z,5.87
2023-03-22T11:25:18.194Z,5.20
2023-03-22T11:27:22.747Z,6.53
2023-03-22T11:29:24.445Z,3.57
2023-03-22T11:31:26.406Z,7.00
2023-03-22T11:33:28.680Z,3.17
2023-03-22T11:35:31.520Z,2.90
2023-03-22T11:37:41.352Z,3.27
2023-03-22T11:39:46.790Z,4.23
2023-03-22T11:41:48.999Z,4.27
2023-03-22T11:43:54.366Z,3.17
2023-03-22T11:45:58.220Z,3.83
2023-03-22T11:48:04.758Z,4.03
2023-03-22T11:50:10.632Z,2.80
2023-03-22T11:52:17.321Z,6.23
2023-03-22T11:54:27.010Z,3.10
2023-03-22T11:56:30.229Z,3.60
2023-03-22T11:58:47.719Z,6.97
2023-03-22T12:00:53.246Z,4.77
2023-03-22T12:02:58.652Z,6.87
2023-03-22T12:05:06.372Z,5.30
2023-03-22T12:07:15.545Z,4.83
2023-03-22T12:09:28.288Z,4.23
2023-03-22T12:11:38.283Z,3.90
2023-03-22T12:13:46.853Z,2.90
2023-03-22T12:15:53.172Z,3.03
2023-03-22T12:18:00.803Z,2.80
2023-03-22T12:20:10.319Z,4.33
2023-03-22T12:22:15.905Z,4.97
2023-03-22T12:24:25.519Z,3.60
2023-03-22T12:26:29.543Z,5.27
2023-03-22T12:28:35.642Z,2.90
2023-03-22T12:30:43.138Z,2.97
2023-03-22T12:32:49.785Z,3.83
2023-03-22T12:34:55.091Z,3.43
2023-03-22T12:37:07.358Z,4.37
2023-03-22T12:39:18.200Z,2.30
2023-03-22T12:41:25.917Z,3.00
2023-03-22T12:43:44.484Z,5.33
2023-03-22T12:45:50.542Z,3.57
2023-03-22T12:48:00.290Z,2.80
2023-03-22T12:50:07.234Z,3.80
2023-03-22T12:52:15.375Z,4.70
2023-03-22T12:54:19.293Z,2.53
2023-03-22T12:56:26.404Z,7.33
2023-03-22T12:58:28.476Z,3.70
2023-03-22T13:00:38.282Z,3.10
2023-03-22T13:02:46.532Z,3.07
2023-03-22T13:04:53.465Z,3.37
2023-03-22T13:06:58.345Z,7.23
2023-03-22T13:09:16.398Z,3.10
2023-03-22T13:11:24.400Z,5.53
2023-03-22T13:13:39.665Z,4.83
2023-03-22T13:15:57.832Z,3.03
2023-03-22T13:17:59.634Z,4.57
2023-03-22T13:20:20.114Z,2.67
2023-03-22T13:22:26.953Z,3.97
2023-03-22T13:24:28.576Z,4.63
2023-03-22T13:26:38.296Z,2.63
2023-03-22T13:28:40.793Z,2.77
2023-03-22T13:30:49.642Z,3.80
2023-03-22T13:32:55.994Z,3.43
2023-03-22T13:34:58.481Z,6.57
2023-03-22T13:37:00.565Z,3.37
2023-03-22T13:39:10.174Z,2.30
2023-03-22T13:41:21.531Z,3.03
2023-03-22T13:43:31.860Z,3.10
2023-03-22T13:45:34.443Z,4.83
2023-03-22T13:47:42.716Z,3.47
2023-03-22T13:49:52.698Z,2.27
2023-03-22T13:52:01.179Z,2.80
2023-03-22T13:54:08.527Z,4.57
2023-03-22T13:56:12.004Z,3.97
2023-03-22T13:58:35.042Z,2.70
2023-03-22T14:00:44.009Z,3.30
2023-03-22T14:02:46.788Z,3.23
2023-03-22T14:04:51.934Z,2.40
2023-03-22T14:06:57.066Z,3.27
2023-03-22T14:09:02.657Z,2.50
2023-03-22T14:11:17.042Z,2.83
2023-03-22T14:13:27.679Z,2.10
2023-03-22T14:15:35.072Z,2.03
2023-03-22T14:17:43.849Z,2.20
2023-03-22T14:19:46.061Z,2.30
